createdAt,value
2023-05-10T00:01:41.731Z,8.85
2023-05-10T00:04:43.097Z,7.68
2023-05-10T00:07:45.838Z,8.80
2023-05-10T00:10:47.403Z,7.00
2023-05-10T00:13:48.859Z,10.77
2023-05-10T00:16:50.245Z,7.63
2023-05-10T00:19:51.695Z,7.40
2023-05-10T00:22:53.213Z,7.78
2023-05-10T00:25:54.582Z,8.18
2023-05-10T00:28:55.985Z,12.48
2023-05-10T00:31:57.398Z,8.35
2023-05-10T00:34:58.858Z,9.07
2023-05-10T00:38:00.264Z,8.15
2023-05-10T00:41:01.872Z,10.32
2023-05-10T00:44:03.591Z,8.85
2023-05-10T00:47:04.983Z,8.48
2023-05-10T00:50:07.511Z,12.35
2023-05-10T00:53:09.928Z,8.43
2023-05-10T00:56:11.478Z,8.50
2023-05-10T00:59:12.826Z,8.00
2023-05-10T01:02:14.258Z,10.02
2023-05-10T01:05:16.122Z,8.60
2023-05-10T01:08:17.874Z,8.18
2023-05-10T01:11:19.432Z,6.60
2023-05-10T01:14:21.273Z,7.35
2023-05-10T01:17:23.822Z,7.25
2023-05-10T01:20:29.280Z,9.32
2023-05-10T01:24:05.587Z,9.95
2023-05-10T01:27:24.523Z,9.20
2023-05-10T01:30:51.737Z,9.25
2023-05-10T01:33:59.937Z,9.23
2023-05-10T01:37:11.781Z,9.35
2023-05-10T01:40:40.277Z,8.00
2023-05-10T01:44:15.371Z,7.65
2023-05-10T01:47:21.141Z,8.33
2023-05-10T01:50:30.401Z,12.13
2023-05-10T01:53:34.364Z,9.30
2023-05-10T01:56:38.683Z,10.38
2023-05-10T01:59:43.020Z,10.18
2023-05-10T02:02:47.526Z,9.45
2023-05-10T02:05:50.306Z,7.55
2023-05-10T02:08:53.087Z,11.68
2023-05-10T02:11:54.998Z,10.90
2023-05-10T02:14:57.409Z,9.40
2023-05-10T02:18:00.990Z,8.68
2023-05-10T02:21:03.655Z,11.57
2023-05-10T02:24:06.393Z,9.30
2023-05-10T02:27:09.527Z,9.85
2023-05-10T02:30:12.441Z,9.07
2023-05-10T02:33:15.209Z,9.20
2023-05-10T02:36:17.774Z,8.40
2023-05-10T02:39:21.559Z,10.52
2023-05-10T02:42:35.993Z,9.20
2023-05-10T02:45:39.817Z,8.32
2023-05-10T02:48:41.355Z,5.55
2023-05-10T02:51:48.174Z,3.67
2023-05-10T02:54:53.189Z,4.05
2023-05-10T02:58:00.784Z,2.00
2023-05-10T03:01:02.586Z,1.92
2023-05-10T03:04:04.481Z,3.58
2023-05-10T03:07:06.204Z,2.50
2023-05-10T03:10:08.498Z,2.30
2023-05-10T03:13:28.681Z,4.07
2023-05-10T03:16:40.269Z,2.47
2023-05-10T03:20:05.451Z,3.78
2023-05-10T03:23:18.755Z,1.27
2023-05-10T03:26:26.678Z,1.95
2023-05-10T03:29:30.563Z,2.03
2023-05-10T03:32:33.465Z,1.23
2023-05-10T03:35:35.120Z,0.50
2023-05-10T03:38:36.465Z,0.30
2023-05-10T03:41:37.831Z,2.28
2023-05-10T03:44:42.430Z,1.08
2023-05-10T03:47:43.824Z,0.55
2023-05-10T03:50:45.353Z,0.75
2023-05-10T03:53:47.147Z,0.82
2023-05-10T03:56:49.028Z,0.80
2023-05-10T03:59:51.016Z,2.28
2023-05-10T04:02:52.410Z,1.75
2023-05-10T04:06:03.469Z,0.70
2023-05-10T04:09:05.371Z,1.17
2023-05-10T04:12:08.945Z,0.70
2023-05-10T04:15:11.668Z,0.80
2023-05-10T04:18:13.035Z,1.48
2023-05-10T04:21:14.862Z,2.25
2023-05-10T04:24:16.515Z,2.58
2023-05-10T04:27:17.902Z,1.55
2023-05-10T04:30:19.400Z,0.60
2023-05-10T04:33:21.285Z,0.68
2023-05-10T04:36:22.802Z,0.75
2023-05-10T04:39:24.146Z,5.75
2023-05-10T04:42:25.623Z,1.35
2023-05-10T04:45:27.017Z,0.45
2023-05-10T04:48:28.408Z,1.05
2023-05-10T04:51:29.793Z,0.93
2023-05-10T04:54:31.156Z,0.70
2023-05-10T04:57:32.661Z,1.58
2023-05-10T05:00:34.277Z,1.95
2023-05-10T05:03:35.901Z,0.80
2023-05-10T05:06:37.326Z,2.15
2023-05-10T05:09:38.725Z,1.10
2023-05-10T05:12:40.136Z,1.13
2023-05-10T05:15:41.533Z,0.75
2023-05-10T05:18:42.959Z,2.85
2023-05-10T05:21:44.386Z,1.00
2023-05-10T05:24:46.576Z,0.80
2023-05-10T05:27:47.971Z,2.97
2023-05-10T05:30:49.350Z,1.52
2023-05-10T05:33:50.725Z,3.33
2023-05-10T05:36:52.200Z,2.80
2023-05-10T05:39:55.363Z,5.53
2023-05-10T05:42:56.716Z,2.08
2023-05-10T05:45:59.066Z,3.35
2023-05-10T05:49:00.604Z,1.40
2023-05-10T05:52:04.926Z,2.50
2023-05-10T05:55:06.514Z,3.50
2023-05-10T05:58:07.841Z,4.50
2023-05-10T06:01:09.540Z,1.63
2023-05-10T06:04:11.326Z,1.70
2023-05-10T06:07:12.810Z,2.72
2023-05-10T06:10:14.266Z,1.92
2023-05-10T06:13:16.499Z,3.20
2023-05-10T06:16:18.657Z,1.27
2023-05-10T06:19:20.013Z,1.30
2023-05-10T06:22:23.548Z,1.55
2023-05-10T06:25:25.133Z,1.83
2023-05-10T06:28:26.555Z,1.50
2023-05-10T06:31:27.966Z,1.42
2023-05-10T06:34:29.374Z,5.75
2023-05-10T06:37:30.721Z,1.20
2023-05-10T06:40:32.324Z,2.85
2023-05-10T06:43:33.673Z,1.42
2023-05-10T06:46:35.090Z,2.30
2023-05-10T06:49:36.441Z,1.70
2023-05-10T06:52:38.372Z,1.40
2023-05-10T06:55:40.161Z,1.17
2023-05-10T06:58:41.613Z,1.30
2023-05-10T07:01:43.609Z,4.05
2023-05-10T07:04:45.494Z,2.35
2023-05-10T07:07:47.010Z,1.63
2023-05-10T07:10:48.348Z,1.70
2023-05-10T07:13:49.715Z,1.88
2023-05-10T07:16:51.097Z,0.90
2023-05-10T07:19:52.777Z,2.55
2023-05-10T07:22:54.146Z,1.15
2023-05-10T07:25:55.554Z,1.90
2023-05-10T07:28:56.904Z,1.35
2023-05-10T07:31:58.978Z,2.50
2023-05-10T07:35:00.635Z,1.70
2023-05-10T07:38:02.591Z,2.60
2023-05-10T07:41:03.982Z,1.00
2023-05-10T07:44:05.962Z,2.35
2023-05-10T07:47:07.360Z,3.63
2023-05-10T07:50:08.940Z,1.83
2023-05-10T07:53:10.332Z,1.35
2023-05-10T07:56:21.344Z,4.60
2023-05-10T07:59:22.706Z,3.20
2023-05-10T08:02:24.125Z,1.27
2023-05-10T08:05:25.595Z,3.30
2023-05-10T08:08:27.124Z,1.45
2023-05-10T08:11:28.813Z,2.22
2023-05-10T08:14:30.756Z,5.50
2023-05-10T08:17:32.200Z,4.22
2023-05-10T08:20:33.796Z,2.05
2023-05-10T08:23:35.168Z,3.63
2023-05-10T08:26:36.576Z,1.23
2023-05-10T08:29:48.937Z,1.45
2023-05-10T08:32:50.779Z,1.92
2023-05-10T08:35:52.197Z,1.80
2023-05-10T08:38:54.897Z,2.80
2023-05-10T08:42:02.365Z,1.65
2023-05-10T08:45:05.550Z,1.80
2023-05-10T08:48:09.369Z,2.40
2023-05-10T08:51:18.493Z,1.77
2023-05-10T08:54:20.019Z,2.15
2023-05-10T08:57:21.595Z,2.38
2023-05-10T09:00:24.548Z,1.38
2023-05-10T09:03:25.959Z,2.00
2023-05-10T09:06:27.578Z,3.50
2023-05-10T09:09:29.602Z,2.20
2023-05-10T09:12:31.155Z,3.17
2023-05-10T09:15:32.499Z,2.90
2023-05-10T09:18:33.916Z,1.95
2023-05-10T09:21:40.041Z,2.30
2023-05-10T09:24:46.087Z,3.00
2023-05-10T09:27:48.586Z,1.83
2023-05-10T09:30:54.685Z,1.80
2023-05-10T09:33:56.117Z,3.00
2023-05-10T09:37:03.506Z,1.73
2023-05-10T09:40:09.013Z,2.80
2023-05-10T09:43:11.790Z,3.70
2023-05-10T09:46:13.572Z,1.60
2023-05-10T09:49:15.745Z,2.13
2023-05-10T09:52:17.400Z,1.20
2023-05-10T09:55:21.178Z,4.40
2023-05-10T09:58:22.549Z,3.47
2023-05-10T10:01:27.374Z,1.17
2023-05-10T10:07:31.203Z,2.33
2023-05-10T10:10:33.928Z,2.90
2023-05-10T10:13:35.516Z,4.50
2023-05-10T10:16:39.955Z,0.98
2023-05-10T10:19:48.324Z,1.20
2023-05-10T10:22:49.878Z,2.15
2023-05-10T10:25:52.840Z,1.67
2023-05-10T10:29:19.081Z,3.47
2023-05-10T10:32:33.950Z,5.38
2023-05-10T10:35:35.864Z,3.55
2023-05-10T10:38:49.509Z,2.08
2023-05-10T10:41:52.509Z,3.00
2023-05-10T10:45:13.306Z,4.90
2023-05-10T10:48:22.744Z,5.70
2023-05-10T10:51:24.166Z,1.80
2023-05-10T10:54:29.304Z,1.77
2023-05-10T10:57:44.201Z,2.17
2023-05-10T11:00:46.389Z,1.80
2023-05-10T11:03:59.647Z,1.42
2023-05-10T11:07:18.090Z,3.38
2023-05-10T11:10:23.814Z,2.08
2023-05-10T11:13:31.214Z,2.05
2023-05-10T11:16:43.987Z,3.53
2023-05-10T11:20:04.519Z,3.85
2023-05-10T11:23:19.001Z,3.33
2023-05-10T11:26:23.993Z,4.03
2023-05-10T11:32:28.808Z,3.58
2023-05-10T11:35:30.208Z,4.35
2023-05-10T11:38:33.807Z,2.83
2023-05-10T11:41:35.346Z,2.03
2023-05-10T11:44:36.811Z,1.88
2023-05-10T11:47:38.246Z,2.50
2023-05-10T11:50:39.716Z,1.77
2023-05-10T11:53:41.157Z,1.10
2023-05-10T11:56:42.656Z,1.95
2023-05-10T11:59:44.020Z,4.30
2023-05-10T12:02:45.729Z,2.15
2023-05-10T12:05:47.343Z,3.47
2023-05-10T12:08:54.457Z,1.73
2023-05-10T12:11:59.018Z,1.20
2023-05-10T12:15:00.441Z,1.50
2023-05-10T12:18:02.280Z,3.38
2023-05-10T12:21:04.648Z,1.52
2023-05-10T12:24:06.276Z,1.67
2023-05-10T12:27:09.608Z,3.10
2023-05-10T12:30:11.615Z,3.00
2023-05-10T12:33:16.104Z,2.80
2023-05-10T12:36:18.240Z,2.55
2023-05-10T12:39:19.581Z,2.35
2023-05-10T12:42:21.014Z,2.28
2023-05-10T12:45:23.046Z,1.83
2023-05-10T12:48:24.824Z,4.03
2023-05-10T12:51:26.200Z,1.55
2023-05-10T12:54:27.553Z,1.83
2023-05-10T12:57:28.930Z,1.60
2023-05-10T13:00:30.593Z,2.53
2023-05-10T13:03:32.068Z,2.88
2023-05-10T13:06:33.463Z,1.90
2023-05-10T13:09:35.239Z,2.60
2023-05-10T13:12:36.925Z,3.28
2023-05-10T13:15:38.384Z,1.30
2023-05-10T13:18:39.795Z,1.58
2023-05-10T13:21:45.150Z,1.88
2023-05-10T13:24:46.544Z,2.00
2023-05-10T13:27:47.901Z,2.95
2023-05-10T13:30:49.261Z,3.08
2023-05-10T13:33:50.664Z,1.45
2023-05-10T13:36:52.331Z,1.33
2023-05-10T13:39:53.810Z,2.22
2023-05-10T13:42:55.192Z,1.90
2023-05-10T13:45:56.609Z,5.57
2023-05-10T13:48:58.003Z,3.08
2023-05-10T13:51:59.839Z,1.55
2023-05-10T13:55:01.639Z,3.53
2023-05-10T13:58:03.089Z,6.13
2023-05-10T14:01:05.619Z,2.45
2023-05-10T14:04:08.023Z,2.40
2023-05-10T14:07:09.440Z,5.30
2023-05-10T14:10:11.062Z,2.33
2023-05-10T14:13:13.129Z,2.75
2023-05-10T14:16:15.737Z,3.88
2023-05-10T14:19:17.143Z,3.17
2023-05-10T14:22:19.206Z,3.25
2023-05-10T14:25:20.751Z,2.65
2023-05-10T14:28:23.559Z,1.38
2023-05-10T14:31:26.529Z,1.45
2023-05-10T14:34:27.936Z,2.00
2023-05-10T14:37:29.309Z,1.63
2023-05-10T14:40:31.176Z,1.58
2023-05-10T14:43:32.653Z,3.13
2023-05-10T14:46:35.369Z,1.70
2023-05-10T14:49:37.924Z,4.10
2023-05-10T14:52:39.264Z,1.20
2023-05-10T14:55:40.862Z,1.23
2023-05-10T14:58:42.317Z,2.40
2023-05-10T15:01:44.052Z,1.40
2023-05-10T15:04:46.046Z,1.05
2023-05-10T15:07:47.938Z,3.88
2023-05-10T15:10:49.506Z,1.20
2023-05-10T15:13:50.850Z,2.75
2023-05-10T15:16:52.210Z,4.35
2023-05-10T15:19:53.554Z,8.70
2023-05-10T15:22:54.998Z,3.15
2023-05-10T15:25:56.899Z,3.17
2023-05-10T15:28:58.388Z,3.50
2023-05-10T15:32:00.518Z,2.47
2023-05-10T15:35:02.045Z,5.85
2023-05-10T15:38:03.403Z,3.58
2023-05-10T15:41:04.929Z,2.75
2023-05-10T15:44:08.596Z,4.45
2023-05-10T15:47:09.953Z,2.53
2023-05-10T15:50:11.379Z,3.35
2023-05-10T15:53:12.749Z,1.60
2023-05-10T15:56:14.289Z,3.15
2023-05-10T15:59:15.660Z,1.35
2023-05-10T16:02:19.239Z,1.95
2023-05-10T16:05:20.797Z,1.35
2023-05-10T16:08:22.212Z,2.67
2023-05-10T16:11:23.687Z,1.80
2023-05-10T16:14:25.530Z,2.00
2023-05-10T16:17:27.088Z,3.42
2023-05-10T16:20:30.058Z,1.73
2023-05-10T16:23:31.972Z,1.75
2023-05-10T16:26:36.616Z,2.22
2023-05-10T16:29:38.154Z,2.00
2023-05-10T16:32:39.506Z,2.00
2023-05-10T16:35:42.137Z,3.63
2023-05-10T16:38:43.523Z,2.28
2023-05-10T16:41:45.285Z,2.20
2023-05-10T16:44:47.979Z,3.55
2023-05-10T16:47:49.640Z,2.38
2023-05-10T16:50:51.061Z,3.53
2023-05-10T16:53:53.578Z,2.38
2023-05-10T16:56:55.148Z,2.85
2023-05-10T16:59:56.558Z,4.05
2023-05-10T17:02:58.023Z,3.88
2023-05-10T17:05:59.470Z,2.80
2023-05-10T17:09:01.118Z,2.60
2023-05-10T17:12:03.698Z,3.13
2023-05-10T17:15:06.187Z,2.85
2023-05-10T17:18:07.891Z,3.35
2023-05-10T17:21:09.546Z,4.00
2023-05-10T17:24:11.455Z,3.20
2023-05-10T17:27:13.945Z,10.57
2023-05-10T17:30:15.612Z,3.70
2023-05-10T17:33:17.008Z,3.80
2023-05-10T17:36:18.397Z,4.90
2023-05-10T17:39:19.821Z,2.53
2023-05-10T17:42:21.211Z,3.03
2023-05-10T17:45:22.883Z,5.13
2023-05-10T17:48:24.252Z,4.35
2023-05-10T17:51:26.701Z,4.55
2023-05-10T17:54:28.130Z,2.75
2023-05-10T17:57:29.544Z,3.97
2023-05-10T18:00:30.890Z,2.80
2023-05-10T18:03:32.975Z,4.70
2023-05-10T18:06:39.267Z,3.75
2023-05-10T18:09:40.678Z,4.00
2023-05-10T18:12:42.106Z,3.95
2023-05-10T18:15:43.593Z,3.80
2023-05-10T18:18:45.093Z,5.82
2023-05-10T18:21:46.678Z,3.70
2023-05-10T18:24:48.138Z,4.07
2023-05-10T18:27:49.667Z,2.85
2023-05-10T18:30:51.534Z,3.33
2023-05-10T18:33:53.170Z,3.45
2023-05-10T18:36:54.574Z,3.45
2023-05-10T18:39:56.361Z,3.40
2023-05-10T18:42:58.156Z,3.20
2023-05-10T18:45:59.890Z,2.90
2023-05-10T18:49:02.489Z,4.82
2023-05-10T18:52:03.922Z,3.03
2023-05-10T18:55:06.353Z,3.63
2023-05-10T18:58:07.819Z,4.55
2023-05-10T19:01:09.314Z,4.00
2023-05-10T19:04:10.928Z,4.15
2023-05-10T19:07:12.323Z,3.15
2023-05-10T19:10:13.871Z,4.97
2023-05-10T19:13:15.330Z,3.92
2023-05-10T19:16:17.302Z,5.07
2023-05-10T19:19:18.739Z,3.15
2023-05-10T19:22:36.075Z,4.05
2023-05-10T19:25:42.972Z,3.95
2023-05-10T19:28:44.498Z,3.83
2023-05-10T19:31:46.206Z,6.05
2023-05-10T19:34:47.679Z,3.50
2023-05-10T19:37:50.867Z,2.80
2023-05-10T19:40:58.049Z,7.47
2023-05-10T19:43:59.805Z,3.28
2023-05-10T19:47:01.322Z,3.90
2023-05-10T19:50:03.584Z,4.40
2023-05-10T19:53:05.081Z,4.47
2023-05-10T19:56:06.940Z,3.13
2023-05-10T19:59:08.298Z,3.03
2023-05-10T20:02:09.699Z,4.07
2023-05-10T20:05:11.101Z,3.15
2023-05-10T20:08:12.551Z,5.70
2023-05-10T20:11:13.960Z,3.95
2023-05-10T20:14:15.330Z,8.90
2023-05-10T20:17:16.678Z,4.22
2023-05-10T20:20:19.914Z,5.70
2023-05-10T20:23:22.196Z,5.88
2023-05-10T20:26:23.628Z,4.53
2023-05-10T20:29:24.979Z,9.00
2023-05-10T20:32:26.384Z,4.50
2023-05-10T20:35:27.747Z,5.10
2023-05-10T20:38:29.291Z,6.45
2023-05-10T20:41:30.690Z,6.35
2023-05-10T20:44:32.064Z,5.20
2023-05-10T20:47:33.601Z,5.38
2023-05-10T20:50:35.489Z,6.78
2023-05-10T20:53:36.869Z,5.13
2023-05-10T20:56:38.220Z,5.30
2023-05-10T20:59:39.731Z,6.45
2023-05-10T21:02:45.595Z,5.10
2023-05-10T21:05:47.242Z,6.50
2023-05-10T21:08:48.724Z,5.05
2023-05-10T21:11:50.772Z,7.30
2023-05-10T21:14:52.265Z,5.30
2023-05-10T21:17:54.350Z,3.55
2023-05-10T21:20:55.790Z,4.25
2023-05-10T21:23:57.156Z,6.13
2023-05-10T21:26:58.499Z,3.72
2023-05-10T21:30:00.035Z,4.20
2023-05-10T21:33:02.583Z,4.78
2023-05-10T21:36:04.411Z,6.25
2023-05-10T21:39:05.933Z,4.25
2023-05-10T21:42:07.298Z,4.38
2023-05-10T21:45:08.878Z,7.07
2023-05-10T21:48:10.317Z,7.97
2023-05-10T21:51:11.870Z,5.88
2023-05-10T21:54:13.276Z,6.35
2023-05-10T21:57:14.684Z,5.88
2023-05-10T22:00:17.364Z,5.40
2023-05-10T22:03:19.007Z,7.13
2023-05-10T22:06:20.523Z,6.13
2023-05-10T22:09:24.258Z,5.53
2023-05-10T22:12:26.035Z,5.78
2023-05-10T22:15:27.940Z,4.75
2023-05-10T22:18:29.498Z,5.97
2023-05-10T22:21:31.814Z,5.10
2023-05-10T22:24:33.189Z,5.93
2023-05-10T22:27:34.900Z,6.40
2023-05-10T22:30:36.401Z,9.68
2023-05-10T22:33:37.790Z,6.80
2023-05-10T22:36:39.199Z,5.28
2023-05-10T22:39:40.638Z,6.60
2023-05-10T22:42:42.078Z,7.55
2023-05-10T22:45:43.759Z,5.65
2023-05-10T22:48:45.161Z,5.07
2023-05-10T22:51:46.547Z,6.22
2023-05-10T22:54:47.982Z,6.22
2023-05-10T22:57:49.365Z,5.78
2023-05-10T23:00:50.778Z,6.63
2023-05-10T23:03:52.153Z,6.13
2023-05-10T23:06:53.637Z,4.57
2023-05-10T23:09:55.160Z,5.50
2023-05-10T23:12:56.592Z,8.43
2023-05-10T23:15:58.112Z,5.53
2023-05-10T23:18:59.631Z,4.38
2023-05-10T23:22:01.018Z,4.13
2023-05-10T23:25:02.406Z,5.75
2023-05-10T23:28:04.573Z,6.05
2023-05-10T23:31:06.003Z,6.38
2023-05-10T23:34:07.360Z,5.95
2023-05-10T23:37:08.805Z,6.03
2023-05-10T23:40:10.521Z,5.68
2023-05-10T23:43:11.912Z,5.40
2023-05-10T23:46:13.306Z,7.18
2023-05-10T23:49:14.696Z,5.65
2023-05-10T23:52:17.384Z,5.57
2023-05-10T23:55:18.786Z,5.20
2023-05-10T23:58:21.135Z,5.93
